createdAt,value
2023-04-20T00:02:59.733Z,99.00
2023-04-20T00:06:44.099Z,99.30
2023-04-20T00:10:26.226Z,99.30
2023-04-20T00:14:08.275Z,99.00
2023-04-20T00:17:50.896Z,99.00
2023-04-20T00:21:32.958Z,99.00
2023-04-20T00:25:14.951Z,99.00
2023-04-20T00:28:57.552Z,99.10
2023-04-20T00:32:39.558Z,99.40
2023-04-20T00:36:24.622Z,99.30
2023-04-20T00:40:09.356Z,99.40
2023-04-20T00:43:52.710Z,99.40
2023-04-20T00:47:34.815Z,99.50
2023-04-20T00:51:17.070Z,99.60
2023-04-20T00:54:59.306Z,99.70
2023-04-20T00:58:44.452Z,99.90
2023-04-20T01:02:29.258Z,99.90
2023-04-20T01:06:13.911Z,99.90
2023-04-20T01:09:56.449Z,99.90
2023-04-20T01:13:38.812Z,99.90
2023-04-20T01:17:21.284Z,99.90
2023-04-20T01:21:05.272Z,99.90
2023-04-20T01:24:47.810Z,99.90
2023-04-20T01:28:29.924Z,99.90
2023-04-20T01:32:12.505Z,99.90
2023-04-20T01:35:54.901Z,99.90
2023-04-20T01:39:39.270Z,99.90
2023-04-20T01:43:23.750Z,99.90
2023-04-20T01:47:05.913Z,99.90
2023-04-20T01:50:51.851Z,99.90
2023-04-20T01:54:33.839Z,99.90
2023-04-20T01:58:15.995Z,99.90
2023-04-20T02:01:58.103Z,99.90
2023-04-20T02:05:40.301Z,99.90
2023-04-20T02:09:22.273Z,99.90
2023-04-20T02:13:04.278Z,99.90
2023-04-20T02:16:46.987Z,99.90
2023-04-20T02:20:29.175Z,99.90
2023-04-20T02:24:11.264Z,99.90
2023-04-20T02:27:53.394Z,99.90
2023-04-20T02:31:35.799Z,99.90
2023-04-20T02:35:17.850Z,99.90
2023-04-20T02:38:59.991Z,99.90
2023-04-20T02:42:42.713Z,99.90
2023-04-20T02:46:24.837Z,99.90
2023-04-20T02:50:07.583Z,99.90
2023-04-20T02:53:49.546Z,99.90
2023-04-20T02:57:31.580Z,99.90
2023-04-20T03:01:13.634Z,99.90
2023-04-20T03:04:55.709Z,99.90
2023-04-20T03:08:37.601Z,99.90
2023-04-20T03:12:20.057Z,99.90
2023-04-20T03:16:02.289Z,99.90
2023-04-20T03:19:44.537Z,99.90
2023-04-20T03:23:27.416Z,99.90
2023-04-20T03:27:09.616Z,99.90
2023-04-20T03:30:51.562Z,99.90
2023-04-20T03:34:36.231Z,99.90
2023-04-20T03:38:18.138Z,99.90
2023-04-20T03:42:00.250Z,99.90
2023-04-20T03:45:42.267Z,99.90
2023-04-20T03:49:27.967Z,99.90
2023-04-20T03:53:10.065Z,99.90
2023-04-20T03:56:52.146Z,99.90
2023-04-20T04:00:34.128Z,99.90
2023-04-20T04:04:16.367Z,99.90
2023-04-20T04:07:58.421Z,99.90
2023-04-20T04:11:40.477Z,99.90
2023-04-20T04:15:22.393Z,99.90
2023-04-20T04:19:04.406Z,99.90
2023-04-20T04:22:46.439Z,99.90
2023-04-20T04:26:28.673Z,99.90
2023-04-20T04:30:11.310Z,99.90
2023-04-20T04:33:53.267Z,99.90
2023-04-20T04:37:35.198Z,99.90
2023-04-20T04:41:17.724Z,99.90
2023-04-20T04:45:02.057Z,99.90
2023-04-20T04:48:44.123Z,99.90
2023-04-20T04:52:26.067Z,99.90
2023-04-20T04:56:08.331Z,99.90
2023-04-20T04:59:50.417Z,99.90
2023-04-20T05:03:32.638Z,99.90
2023-04-20T05:07:15.287Z,99.90
2023-04-20T05:10:57.958Z,99.90
2023-04-20T05:14:52.384Z,99.90
2023-04-20T05:18:43.060Z,99.90
2023-04-20T05:26:33.842Z,99.90
2023-04-20T05:30:21.264Z,99.90
2023-04-20T05:34:25.818Z,99.90
2023-04-20T05:38:08.168Z,99.90
2023-04-20T05:41:53.979Z,99.90
2023-04-20T05:45:42.543Z,99.90
2023-04-20T05:49:25.522Z,99.90
2023-04-20T05:53:07.851Z,99.90
2023-04-20T05:56:58.999Z,99.90
2023-04-20T06:00:41.588Z,99.90
2023-04-20T06:04:24.490Z,99.90
2023-04-20T06:08:14.084Z,99.90
2023-04-20T06:11:57.456Z,99.90
2023-04-20T06:15:41.817Z,99.90
2023-04-20T06:19:28.446Z,99.90
2023-04-20T06:23:11.946Z,99.90
2023-04-20T06:26:55.199Z,99.90
2023-04-20T06:30:45.267Z,99.90
2023-04-20T06:34:28.034Z,99.90
2023-04-20T06:38:16.666Z,99.90
2023-04-20T06:42:06.193Z,99.90
2023-04-20T06:46:06.572Z,99.90
2023-04-20T06:49:55.227Z,99.90
2023-04-20T06:53:38.166Z,99.90
2023-04-20T07:05:42.743Z,99.90
2023-04-20T07:09:25.189Z,99.90
2023-04-20T07:21:43.664Z,99.90
2023-04-20T07:25:34.800Z,99.90
2023-04-20T07:29:26.332Z,99.90
2023-04-20T07:37:34.595Z,99.90
2023-04-20T07:49:41.174Z,99.90
2023-04-20T07:53:44.000Z,99.40
2023-04-20T07:57:34.424Z,98.70
2023-04-20T08:01:39.500Z,96.80
2023-04-20T08:05:28.576Z,95.10
2023-04-20T08:09:31.452Z,93.80
2023-04-20T08:13:15.559Z,93.60
2023-04-20T08:17:47.673Z,91.30
2023-04-20T08:21:30.098Z,91.30
2023-04-20T08:41:30.542Z,77.00
2023-04-20T08:50:26.727Z,74.50
2023-04-20T08:54:10.536Z,75.90
2023-04-20T08:57:56.960Z,68.00
2023-04-20T09:01:43.442Z,68.30
2023-04-20T09:09:37.588Z,68.50
2023-04-20T09:17:42.824Z,63.80
2023-04-20T09:21:35.984Z,61.80
2023-04-20T09:26:05.248Z,62.00
2023-04-20T09:29:59.711Z,63.70
2023-04-20T09:34:01.319Z,60.70
2023-04-20T09:37:56.976Z,61.20
2023-04-20T09:46:21.090Z,58.50
2023-04-20T09:50:29.367Z,57.70
2023-04-20T09:54:50.766Z,58.20
2023-04-20T09:59:18.625Z,57.20
2023-04-20T10:08:20.589Z,57.50
2023-04-20T10:21:56.025Z,55.80
2023-04-20T10:31:00.817Z,51.20
2023-04-20T10:40:00.759Z,48.60
2023-04-20T10:53:32.562Z,53.60
2023-04-20T10:57:53.323Z,54.90
2023-04-20T11:17:03.251Z,57.00
2023-04-20T11:25:30.213Z,59.50
2023-04-20T11:33:23.472Z,61.60
2023-04-20T12:01:00.233Z,60.10
2023-04-20T12:10:00.918Z,59.80
2023-04-20T12:37:01.131Z,56.70
2023-04-20T12:57:54.431Z,58.00
2023-04-20T13:46:20.943Z,58.40
2023-04-20T14:18:26.986Z,57.80
2023-04-20T14:35:51.387Z,58.30
2023-04-20T14:39:48.132Z,57.70
2023-04-20T14:43:47.773Z,57.40
2023-04-20T15:01:59.108Z,56.90
2023-04-20T15:39:31.648Z,54.80
2023-04-20T15:44:01.960Z,54.10
2023-04-20T15:53:01.980Z,55.40
2023-04-20T16:00:55.223Z,54.30
2023-04-20T16:36:57.886Z,55.50
2023-04-20T16:46:00.576Z,55.60
2023-04-20T16:54:25.148Z,56.20
2023-04-20T17:23:44.224Z,51.40
2023-04-20T17:32:09.303Z,52.90
2023-04-20T17:36:06.081Z,52.50
2023-04-20T17:40:02.140Z,53.00
2023-04-20T17:49:02.278Z,47.60
2023-04-20T18:54:21.116Z,57.80
2023-04-20T19:26:16.785Z,63.10
2023-04-20T19:29:58.907Z,63.70
2023-04-20T19:33:41.138Z,64.20
2023-04-20T19:37:23.933Z,64.00
2023-04-20T19:41:06.987Z,63.80
2023-04-20T19:44:49.270Z,65.40
2023-04-20T19:48:31.456Z,68.90
2023-04-20T19:52:13.528Z,70.50
2023-04-20T19:55:55.902Z,73.30
2023-04-20T19:59:41.184Z,75.90
2023-04-20T20:03:24.246Z,78.30
2023-04-20T20:07:06.624Z,84.90
2023-04-20T20:10:49.233Z,86.60
2023-04-20T20:14:32.840Z,91.80
2023-04-20T20:18:14.894Z,92.30
2023-04-20T20:22:01.748Z,94.70
2023-04-20T20:25:43.896Z,94.10
2023-04-20T20:29:26.054Z,95.50
2023-04-20T20:33:08.255Z,97.20
2023-04-20T20:36:51.467Z,97.20
2023-04-20T20:40:41.551Z,97.10
2023-04-20T20:44:23.884Z,97.50
2023-04-20T20:48:06.222Z,97.20
2023-04-20T20:51:48.474Z,99.50
2023-04-20T20:55:31.892Z,98.80
2023-04-20T20:59:14.068Z,99.40
2023-04-20T21:02:57.500Z,99.70
2023-04-20T21:06:39.684Z,99.90
2023-04-20T21:10:21.834Z,99.90
2023-04-20T21:14:04.171Z,99.90
2023-04-20T21:17:46.453Z,99.90
2023-04-20T21:21:31.731Z,99.90
2023-04-20T21:25:13.862Z,99.90
2023-04-20T21:28:55.894Z,99.90
2023-04-20T21:32:38.055Z,99.90
2023-04-20T21:36:20.165Z,99.90
2023-04-20T21:40:05.163Z,99.90
2023-04-20T21:43:51.575Z,99.90
2023-04-20T21:47:36.311Z,99.90
2023-04-20T21:51:18.748Z,99.90
2023-04-20T21:55:00.898Z,99.90
2023-04-20T21:58:45.882Z,99.90
2023-04-20T22:02:28.138Z,99.90
2023-04-20T22:06:12.787Z,99.90
2023-04-20T22:09:55.517Z,99.90
2023-04-20T22:13:37.720Z,99.90
2023-04-20T22:17:19.741Z,99.90
2023-04-20T22:21:01.701Z,99.90
2023-04-20T22:24:44.619Z,99.90
2023-04-20T22:28:26.657Z,99.90
2023-04-20T22:32:08.576Z,99.90
2023-04-20T22:35:50.615Z,99.90
2023-04-20T22:39:32.625Z,99.90
2023-04-20T22:43:14.761Z,99.90
2023-04-20T22:46:56.832Z,99.90
2023-04-20T22:50:38.872Z,99.90
2023-04-20T22:54:20.865Z,99.90
2023-04-20T22:58:02.850Z,99.90
2023-04-20T23:01:44.830Z,99.90
2023-04-20T23:05:26.885Z,99.90
2023-04-20T23:09:08.866Z,99.90
2023-04-20T23:12:50.781Z,99.90
2023-04-20T23:16:33.407Z,99.90
2023-04-20T23:20:15.498Z,99.90
2023-04-20T23:23:57.852Z,99.90
2023-04-20T23:27:39.772Z,99.90
2023-04-20T23:31:21.825Z,99.90
2023-04-20T23:35:04.227Z,99.90
2023-04-20T23:38:46.353Z,99.90
2023-04-20T23:42:28.309Z,99.90
2023-04-20T23:46:10.604Z,99.90
2023-04-20T23:49:52.570Z,99.90
2023-04-20T23:53:39.309Z,99.90
2023-04-20T23:57:21.226Z,99.90
